Time;durP1;ratioP1;P1;durP2;ratioP2;P2;SDS_P1;SDS_P2;PMS_P1;PMS_P2;Temp;Humidity;BMP_temperature;BMP_pressure;BME280_temperature;BME280_humidity;BME280_pressure;Samples;Min_cycle;Max_cycle;Signal;HPM_P1;HPM_P2
2022/03/10 00:01:14;;;;;;;8.18;5.85;;;;;;;;;;5094125;28;20398;-45
2022/03/10 00:03:40;;;;;;;8.60;6.43;;;;;;;;;;5094446;28;20016;-45
2022/03/10 00:06:05;;;;;;;7.68;5.82;;;;;;;;;;5094165;28;20024;-45
2022/03/10 00:08:31;;;;;;;12.35;5.95;;;;;;;;;;5094079;28;20506;-45
2022/03/10 00:10:57;;;;;;;9.30;5.47;;;;;;;;;;5094119;28;20393;-49
2022/03/10 00:13:27;;;;;;;9.85;6.38;;;;;;;;;;5093913;28;20028;-49
2022/03/10 00:15:53;;;;;;;8.85;6.50;;;;;;;;;;5093981;28;20061;-52
2022/03/10 00:18:19;;;;;;;9.25;5.82;;;;;;;;;;5093805;28;20428;-50
2022/03/10 00:20:45;;;;;;;7.50;5.47;;;;;;;;;;5093776;28;20071;-49
2022/03/10 00:23:11;;;;;;;8.65;5.53;;;;;;;;;;5093758;28;20051;-48
2022/03/10 00:25:37;;;;;;;8.50;6.10;;;;;;;;;;5093747;28;20105;-49
2022/03/10 00:28:03;;;;;;;8.70;5.93;;;;;;;;;;5094002;28;20443;-49
2022/03/10 00:30:29;;;;;;;9.07;5.72;;;;;;;;;;5093768;28;20032;-49
2022/03/10 00:32:55;;;;;;;9.05;6.55;;;;;;;;;;5093659;28;20047;-49
2022/03/10 00:35:22;;;;;;;10.93;6.20;;;;;;;;;;5093582;28;20035;-50
2022/03/10 00:37:49;;;;;;;8.27;5.68;;;;;;;;;;5093404;28;20044;-50
2022/03/10 00:40:15;;;;;;;7.95;6.00;;;;;;;;;;5093476;28;20075;-49
2022/03/10 00:42:42;;;;;;;7.63;5.68;;;;;;;;;;5093639;28;20020;-50
2022/03/10 00:45:08;;;;;;;7.18;6.00;;;;;;;;;;5093756;28;20043;-49
2022/03/10 00:47:35;;;;;;;8.82;5.70;;;;;;;;;;5093410;28;20028;-48
2022/03/10 00:50:01;;;;;;;9.43;6.15;;;;;;;;;;5093406;28;20035;-49
2022/03/10 00:52:27;;;;;;;10.13;5.80;;;;;;;;;;5093205;28;20039;-49
2022/03/10 00:54:53;;;;;;;7.95;5.47;;;;;;;;;;5093297;28;20062;-50
2022/03/10 00:57:20;;;;;;;8.82;5.65;;;;;;;;;;5093132;28;20034;-51
2022/03/10 00:59:45;;;;;;;7.80;5.60;;;;;;;;;;5093054;28;20072;-50
2022/03/10 01:02:11;;;;;;;7.53;5.57;;;;;;;;;;5093012;28;20475;-50
2022/03/10 01:04:38;;;;;;;8.05;5.47;;;;;;;;;;5093016;28;20059;-50
2022/03/10 01:07:04;;;;;;;8.20;5.78;;;;;;;;;;5093098;28;20028;-50
2022/03/10 01:09:30;;;;;;;8.27;5.70;;;;;;;;;;5092904;28;20434;-50
2022/03/10 01:11:55;;;;;;;7.53;5.40;;;;;;;;;;5092965;28;20085;-48
2022/03/10 01:14:21;;;;;;;9.10;6.18;;;;;;;;;;5092888;28;20474;-49
2022/03/10 01:16:47;;;;;;;8.30;6.05;;;;;;;;;;5092867;28;20142;-50
2022/03/10 01:19:15;;;;;;;8.18;5.68;;;;;;;;;;5092792;28;20043;-49
2022/03/10 01:21:44;;;;;;;7.88;5.90;;;;;;;;;;5092732;28;20111;-50
2022/03/10 01:24:10;;;;;;;8.43;5.93;;;;;;;;;;5092590;28;20088;-49
2022/03/10 01:26:36;;;;;;;8.60;6.38;;;;;;;;;;5093014;28;20077;-49
2022/03/10 01:29:02;;;;;;;9.07;6.57;;;;;;;;;;5092686;28;20106;-49
2022/03/10 01:31:28;;;;;;;8.43;5.53;;;;;;;;;;5092623;28;20032;-50
2022/03/10 01:33:54;;;;;;;8.52;5.93;;;;;;;;;;5092602;28;20060;-49
2022/03/10 01:36:20;;;;;;;9.88;5.43;;;;;;;;;;5092431;28;20459;-51
2022/03/10 01:38:46;;;;;;;9.68;6.07;;;;;;;;;;5092537;28;20032;-49
2022/03/10 01:41:12;;;;;;;7.82;5.85;;;;;;;;;;5092532;28;20466;-51
2022/03/10 01:43:59;;;;;;;7.80;5.88;;;;;;;;;;5092560;28;20505;-49
2022/03/10 01:46:25;;;;;;;7.22;5.30;;;;;;;;;;5092761;28;20180;-51
2022/03/10 01:48:51;;;;;;;8.63;6.03;;;;;;;;;;5092402;28;20028;-50
2022/03/10 01:51:17;;;;;;;10.05;5.82;;;;;;;;;;5092423;28;20435;-49
2022/03/10 01:53:43;;;;;;;8.50;5.45;;;;;;;;;;5092375;28;20024;-49
2022/03/10 01:56:10;;;;;;;7.32;5.60;;;;;;;;;;5092405;28;20474;-49
2022/03/10 01:58:37;;;;;;;8.48;5.38;;;;;;;;;;5092309;28;20529;-50
2022/03/10 02:01:03;;;;;;;8.55;5.05;;;;;;;;;;5092595;28;20201;-46
2022/03/10 02:03:29;;;;;;;9.57;5.80;;;;;;;;;;5092385;28;20028;-45
2022/03/10 02:05:56;;;;;;;7.70;5.45;;;;;;;;;;5092318;28;20063;-45
2022/03/10 02:11:07;;;;;;;8.05;5.22;;;;;;;;;;5092538;28;20043;-45
2022/03/10 02:13:33;;;;;;;8.15;5.45;;;;;;;;;;5092234;28;20032;-45
2022/03/10 02:18:44;;;;;;;7.20;5.90;;;;;;;;;;5091392;28;20445;-46
2022/03/10 02:21:10;;;;;;;8.07;5.60;;;;;;;;;;5092581;28;20051;-46
2022/03/10 02:23:36;;;;;;;9.10;5.95;;;;;;;;;;5092118;28;20082;-45
2022/03/10 02:26:02;;;;;;;7.97;5.90;;;;;;;;;;5092114;28;20029;-45
2022/03/10 02:28:29;;;;;;;11.57;6.15;;;;;;;;;;5092126;28;20028;-45
2022/03/10 02:30:55;;;;;;;7.53;5.13;;;;;;;;;;5092014;28;20505;-45
2022/03/10 02:33:21;;;;;;;8.38;5.97;;;;;;;;;;5092027;28;20482;-45
2022/03/10 02:35:47;;;;;;;7.10;5.60;;;;;;;;;;5092091;28;20035;-45
2022/03/10 02:38:19;;;;;;;9.50;6.18;;;;;;;;;;5095805;28;20178;-45
2022/03/10 02:40:46;;;;;;;8.98;5.95;;;;;;;;;;5095681;28;20035;-45
2022/03/10 02:43:12;;;;;;;9.10;5.80;;;;;;;;;;5095789;28;20031;-45
2022/03/10 02:45:38;;;;;;;7.75;5.97;;;;;;;;;;5096019;28;20058;-45
2022/03/10 02:48:04;;;;;;;8.65;6.07;;;;;;;;;;5095645;28;20380;-45
2022/03/10 02:50:30;;;;;;;7.78;5.43;;;;;;;;;;5095628;28;20497;-45
2022/03/10 02:52:56;;;;;;;8.38;5.82;;;;;;;;;;5095635;28;20024;-44
2022/03/10 02:55:22;;;;;;;8.93;5.78;;;;;;;;;;5095848;28;20127;-45
2022/03/10 02:57:48;;;;;;;7.68;5.80;;;;;;;;;;5095499;28;20027;-45
2022/03/10 03:00:14;;;;;;;10.68;6.28;;;;;;;;;;5095371;28;20494;-45
2022/03/10 03:02:41;;;;;;;9.40;6.00;;;;;;;;;;5095329;28;20028;-45
2022/03/10 03:05:08;;;;;;;8.05;5.65;;;;;;;;;;5095304;28;20565;-46
2022/03/10 03:07:34;;;;;;;8.02;5.97;;;;;;;;;;5095293;28;20032;-45
2022/03/10 03:10:00;;;;;;;7.82;5.68;;;;;;;;;;5095236;28;20031;-46
2022/03/10 03:12:26;;;;;;;7.65;5.43;;;;;;;;;;5095232;28;20111;-45
2022/03/10 03:14:53;;;;;;;8.77;5.93;;;;;;;;;;5095186;28;20116;-45
2022/03/10 03:17:19;;;;;;;8.02;5.90;;;;;;;;;;5095157;28;20493;-45
2022/03/10 03:19:44;;;;;;;9.57;6.18;;;;;;;;;;5095098;28;20111;-45
2022/03/10 03:22:10;;;;;;;8.65;5.90;;;;;;;;;;5095023;28;20497;-45
2022/03/10 03:24:37;;;;;;;8.20;5.70;;;;;;;;;;5095033;28;20517;-46
2022/03/10 03:27:03;;;;;;;9.23;6.28;;;;;;;;;;5094941;28;20032;-45
2022/03/10 03:29:29;;;;;;;7.30;5.15;;;;;;;;;;5094926;28;20028;-46
2022/03/10 03:31:56;;;;;;;8.95;6.07;;;;;;;;;;5094889;28;20036;-45
2022/03/10 03:34:22;;;;;;;8.18;6.45;;;;;;;;;;5094850;28;20032;-45
2022/03/10 03:36:48;;;;;;;8.63;6.10;;;;;;;;;;5094660;28;20057;-46
2022/03/10 03:39:14;;;;;;;10.20;5.63;;;;;;;;;;5094579;28;20032;-46
2022/03/10 03:41:40;;;;;;;9.00;6.03;;;;;;;;;;5094627;28;20052;-45
2022/03/10 03:44:06;;;;;;;7.90;5.38;;;;;;;;;;5094788;28;20088;-46
2022/03/10 03:46:33;;;;;;;8.98;6.55;;;;;;;;;;5094304;28;20442;-46
2022/03/10 03:48:59;;;;;;;8.55;5.93;;;;;;;;;;5094561;28;20028;-45
2022/03/10 03:51:25;;;;;;;7.72;5.53;;;;;;;;;;5094486;28;20391;-50
2022/03/10 03:53:51;;;;;;;8.05;5.85;;;;;;;;;;5094492;28;20035;-51
2022/03/10 03:56:17;;;;;;;8.57;6.03;;;;;;;;;;5094351;28;20052;-49
2022/03/10 03:58:43;;;;;;;8.35;5.97;;;;;;;;;;5094331;28;20187;-51
2022/03/10 04:01:09;;;;;;;9.10;6.25;;;;;;;;;;5094148;28;20478;-49
2022/03/10 04:03:35;;;;;;;9.57;6.13;;;;;;;;;;5094520;28;20026;-50
2022/03/10 04:06:01;;;;;;;7.70;5.93;;;;;;;;;;5094475;28;20028;-50
2022/03/10 04:08:27;;;;;;;9.00;5.82;;;;;;;;;;5094224;28;20373;-49
2022/03/10 04:10:53;;;;;;;8.93;6.43;;;;;;;;;;5094229;28;20182;-45
2022/03/10 04:13:21;;;;;;;8.18;5.78;;;;;;;;;;5094038;28;20032;-45
2022/03/10 04:15:49;;;;;;;8.50;5.70;;;;;;;;;;5094237;28;20032;-45
2022/03/10 04:18:16;;;;;;;7.13;5.63;;;;;;;;;;5094234;28;20427;-46
2022/03/10 04:20:42;;;;;;;8.20;6.22;;;;;;;;;;5094092;28;20040;-45
2022/03/10 04:23:08;;;;;;;10.15;6.50;;;;;;;;;;5094105;28;20425;-46
2022/03/10 04:25:35;;;;;;;8.93;6.70;;;;;;;;;;5093813;28;20153;-45
2022/03/10 04:28:01;;;;;;;8.82;6.38;;;;;;;;;;5094038;28;20051;-50
2022/03/10 04:30:27;;;;;;;7.22;5.53;;;;;;;;;;5093801;28;20032;-45
2022/03/10 04:32:53;;;;;;;9.15;6.20;;;;;;;;;;5093690;28;20024;-45
2022/03/10 04:35:19;;;;;;;8.40;5.80;;;;;;;;;;5093867;28;20394;-45
2022/03/10 04:37:48;;;;;;;8.07;6.10;;;;;;;;;;5093428;28;20044;-45
2022/03/10 04:40:14;;;;;;;9.48;6.63;;;;;;;;;;5093442;28;20402;-45
2022/03/10 04:42:40;;;;;;;9.35;6.50;;;;;;;;;;5093513;28;20095;-46
2022/03/10 04:45:07;;;;;;;9.55;6.50;;;;;;;;;;5093736;28;20032;-45
2022/03/10 04:47:33;;;;;;;8.85;6.20;;;;;;;;;;5093405;28;20059;-45
2022/03/10 04:49:59;;;;;;;8.05;6.47;;;;;;;;;;5093360;28;20056;-51
2022/03/10 04:52:25;;;;;;;9.50;6.57;;;;;;;;;;5093323;28;20027;-45
2022/03/10 04:54:51;;;;;;;8.13;5.68;;;;;;;;;;5093288;28;20027;-45
2022/03/10 04:57:17;;;;;;;8.68;6.38;;;;;;;;;;5093232;28;20059;-45
2022/03/10 04:59:43;;;;;;;8.80;6.55;;;;;;;;;;5092282;28;20071;-45
2022/03/10 05:02:09;;;;;;;8.40;6.43;;;;;;;;;;5093056;28;20062;-45
2022/03/10 05:04:35;;;;;;;8.85;6.47;;;;;;;;;;5093030;28;20028;-45
2022/03/10 05:07:01;;;;;;;6.97;6.03;;;;;;;;;;5093080;28;20020;-45
2022/03/10 05:09:27;;;;;;;8.55;6.13;;;;;;;;;;5092969;28;20028;-45
2022/03/10 05:11:53;;;;;;;7.95;5.80;;;;;;;;;;5092955;28;20436;-45
2022/03/10 05:14:19;;;;;;;10.48;6.78;;;;;;;;;;5091578;28;20025;-45
2022/03/10 05:16:45;;;;;;;8.88;6.30;;;;;;;;;;5092895;28;20478;-46
2022/03/10 05:19:11;;;;;;;10.07;6.78;;;;;;;;;;5092685;28;20028;-45
2022/03/10 05:21:37;;;;;;;7.75;6.05;;;;;;;;;;5092748;28;20038;-44
2022/03/10 05:24:04;;;;;;;9.10;6.45;;;;;;;;;;5092810;28;20060;-45
2022/03/10 05:26:30;;;;;;;10.30;6.57;;;;;;;;;;5093045;28;20493;-45
2022/03/10 05:28:56;;;;;;;10.02;6.50;;;;;;;;;;5092751;28;20028;-44
2022/03/10 05:31:22;;;;;;;10.15;6.55;;;;;;;;;;5092705;28;20063;-45
2022/03/10 05:33:48;;;;;;;10.95;6.30;;;;;;;;;;5092619;28;20024;-45
2022/03/10 05:36:14;;;;;;;8.10;6.47;;;;;;;;;;5092419;28;20475;-45
2022/03/10 05:38:40;;;;;;;9.23;6.43;;;;;;;;;;5092574;28;20028;-45
2022/03/10 05:41:06;;;;;;;9.00;6.57;;;;;;;;;;5092496;28;20039;-45
2022/03/10 05:43:32;;;;;;;9.45;6.45;;;;;;;;;;5092398;28;20127;-45
2022/03/10 05:45:58;;;;;;;9.70;6.80;;;;;;;;;;5092502;28;20107;-45
2022/03/10 05:48:24;;;;;;;8.02;6.38;;;;;;;;;;5092491;28;20025;-45
2022/03/10 05:50:50;;;;;;;8.82;6.40;;;;;;;;;;5092413;28;20458;-45
2022/03/10 05:53:16;;;;;;;10.95;7.05;;;;;;;;;;5092432;28;20024;-45
2022/03/10 05:55:42;;;;;;;7.95;5.95;;;;;;;;;;5092379;28;20030;-45
2022/03/10 05:58:08;;;;;;;8.88;6.20;;;;;;;;;;5092676;28;20059;-45
2022/03/10 06:00:34;;;;;;;11.30;6.50;;;;;;;;;;5092500;28;20043;-45
2022/03/10 06:03:00;;;;;;;8.73;6.05;;;;;;;;;;5092282;28;20028;-45
2022/03/10 06:05:26;;;;;;;8.77;5.80;;;;;;;;;;5092308;28;20028;-44
2022/03/10 06:07:52;;;;;;;8.80;6.35;;;;;;;;;;5092554;28;20413;-45
2022/03/10 06:10:18;;;;;;;8.23;5.88;;;;;;;;;;5093393;28;20103;-45
2022/03/10 06:12:45;;;;;;;7.50;5.57;;;;;;;;;;5096753;28;20121;-45
2022/03/10 06:15:11;;;;;;;8.82;6.68;;;;;;;;;;5096651;28;20039;-45
2022/03/10 06:17:38;;;;;;;9.23;5.78;;;;;;;;;;5096334;28;20024;-44
2022/03/10 06:20:05;;;;;;;9.60;7.05;;;;;;;;;;5096302;28;20041;-50
2022/03/10 06:22:31;;;;;;;7.68;5.88;;;;;;;;;;5096523;28;20043;-50
2022/03/10 06:24:58;;;;;;;8.80;6.25;;;;;;;;;;5096009;28;20016;-50
2022/03/10 06:27:24;;;;;;;8.45;6.35;;;;;;;;;;5095891;28;20032;-50
2022/03/10 06:29:51;;;;;;;17.35;6.57;;;;;;;;;;5095928;28;20054;-50
2022/03/10 06:32:18;;;;;;;8.63;6.10;;;;;;;;;;5095902;28;20566;-49
2022/03/10 06:34:44;;;;;;;7.38;5.57;;;;;;;;;;5095768;28;20055;-50
2022/03/10 06:37:10;;;;;;;8.38;5.80;;;;;;;;;;5095810;28;20093;-50
2022/03/10 06:39:36;;;;;;;6.97;5.70;;;;;;;;;;5095744;28;20581;-49
2022/03/10 06:42:02;;;;;;;8.20;5.97;;;;;;;;;;5095634;28;20423;-50
2022/03/10 06:44:29;;;;;;;6.95;5.80;;;;;;;;;;5095614;28;20024;-49
2022/03/10 06:46:55;;;;;;;7.60;5.57;;;;;;;;;;5095454;28;20063;-48
2022/03/10 06:49:21;;;;;;;7.70;5.75;;;;;;;;;;5095588;28;20068;-47
2022/03/10 06:51:48;;;;;;;7.18;5.47;;;;;;;;;;5095560;28;20020;-50
2022/03/10 06:54:14;;;;;;;7.47;5.60;;;;;;;;;;5095992;28;20028;-48
2022/03/10 06:56:40;;;;;;;9.10;6.07;;;;;;;;;;5095635;28;20487;-47
2022/03/10 06:59:07;;;;;;;7.55;5.72;;;;;;;;;;5094188;28;20073;-51
2022/03/10 07:01:33;;;;;;;7.03;5.63;;;;;;;;;;5095375;28;20024;-50
2022/03/10 07:03:59;;;;;;;8.60;5.93;;;;;;;;;;5095238;28;20474;-49
2022/03/10 07:06:25;;;;;;;8.32;6.05;;;;;;;;;;5095358;28;20178;-51
2022/03/10 07:08:51;;;;;;;8.77;5.68;;;;;;;;;;5095235;28;20028;-51
2022/03/10 07:11:17;;;;;;;7.20;5.55;;;;;;;;;;5095543;28;20035;-48
2022/03/10 07:13:44;;;;;;;8.13;6.65;;;;;;;;;;5095235;28;20159;-51
2022/03/10 07:16:10;;;;;;;9.25;6.53;;;;;;;;;;5095087;28;20024;-47
2022/03/10 07:18:36;;;;;;;9.70;6.75;;;;;;;;;;5095084;28;20520;-45
2022/03/10 07:21:04;;;;;;;13.60;7.18;;;;;;;;;;5094970;28;20406;-46
2022/03/10 07:23:30;;;;;;;9.35;6.55;;;;;;;;;;5094381;28;20058;-46
2022/03/10 07:25:56;;;;;;;9.45;7.45;;;;;;;;;;5093548;28;20379;-45
2022/03/10 07:28:22;;;;;;;8.98;6.75;;;;;;;;;;5095231;28;20027;-44
2022/03/10 07:30:48;;;;;;;13.02;6.55;;;;;;;;;;5094945;28;20032;-45
2022/03/10 07:33:14;;;;;;;9.15;6.95;;;;;;;;;;5095045;28;20377;-45
2022/03/10 07:35:40;;;;;;;8.98;6.40;;;;;;;;;;5094581;28;20375;-44
2022/03/10 07:38:06;;;;;;;10.93;7.22;;;;;;;;;;5094359;28;20232;-45
2022/03/10 07:40:32;;;;;;;10.90;7.10;;;;;;;;;;5094530;28;20088;-44
2022/03/10 07:42:58;;;;;;;10.07;6.75;;;;;;;;;;5094638;28;20104;-44
2022/03/10 07:45:25;;;;;;;12.57;7.40;;;;;;;;;;5094596;28;20096;-45
2022/03/10 07:47:52;;;;;;;10.13;7.43;;;;;;;;;;5094554;28;20108;-45
2022/03/10 07:50:18;;;;;;;11.55;7.97;;;;;;;;;;5094336;28;20056;-46
2022/03/10 07:52:44;;;;;;;9.80;6.70;;;;;;;;;;5094388;28;20035;-51
2022/03/10 07:55:13;;;;;;;12.40;7.68;;;;;;;;;;5094504;28;20115;-52
2022/03/10 07:57:39;;;;;;;10.23;7.15;;;;;;;;;;5094295;28;20028;-53
2022/03/10 08:00:06;;;;;;;10.25;6.85;;;;;;;;;;5094058;28;20040;-49
2022/03/10 08:02:32;;;;;;;12.45;7.00;;;;;;;;;;5094133;28;20028;-49
2022/03/10 08:04:58;;;;;;;10.23;6.95;;;;;;;;;;5094029;28;20035;-52
2022/03/10 08:07:24;;;;;;;11.88;7.47;;;;;;;;;;5094061;28;20077;-54
2022/03/10 08:09:50;;;;;;;12.15;6.90;;;;;;;;;;5094114;28;20028;-53
2022/03/10 08:12:16;;;;;;;11.35;6.40;;;;;;;;;;5094072;28;20031;-50
2022/03/10 08:14:42;;;;;;;8.60;6.15;;;;;;;;;;5093946;28;20064;-52
2022/03/10 08:17:09;;;;;;;9.20;6.03;;;;;;;;;;5093918;28;20111;-52
2022/03/10 08:19:35;;;;;;;11.27;6.22;;;;;;;;;;5093804;28;20036;-52
2022/03/10 08:22:01;;;;;;;7.88;5.43;;;;;;;;;;5093854;28;20024;-52
2022/03/10 08:24:28;;;;;;;8.52;6.15;;;;;;;;;;5093825;28;20032;-51
2022/03/10 08:26:54;;;;;;;9.98;5.60;;;;;;;;;;5094089;28;20103;-51
2022/03/10 08:29:20;;;;;;;7.18;6.10;;;;;;;;;;5093825;28;20497;-51
2022/03/10 08:31:47;;;;;;;7.72;5.28;;;;;;;;;;5093679;28;20107;-52
2022/03/10 08:34:16;;;;;;;6.25;5.20;;;;;;;;;;5093542;28;20039;-50
2022/03/10 08:36:42;;;;;;;7.68;5.80;;;;;;;;;;5093451;28;20513;-50
2022/03/10 08:39:08;;;;;;;8.43;5.47;;;;;;;;;;5093463;28;20036;-47
2022/03/10 08:41:34;;;;;;;8.23;5.28;;;;;;;;;;5093352;28;20036;-50
2022/03/10 08:44:00;;;;;;;6.97;5.38;;;;;;;;;;5093344;28;20020;-52
2022/03/10 08:46:26;;;;;;;7.65;5.20;;;;;;;;;;5093338;28;20054;-47
2022/03/10 08:48:52;;;;;;;6.32;4.85;;;;;;;;;;5093348;28;20028;-46
2022/03/10 08:51:17;;;;;;;7.43;5.32;;;;;;;;;;5093171;28;20032;-48
2022/03/10 08:53:43;;;;;;;7.60;5.38;;;;;;;;;;5093113;28;20039;-47
2022/03/10 08:56:09;;;;;;;6.60;5.18;;;;;;;;;;5093297;28;20075;-48
2022/03/10 08:58:35;;;;;;;6.80;5.07;;;;;;;;;;5093052;28;20040;-47
2022/03/10 09:01:02;;;;;;;6.75;4.63;;;;;;;;;;5092971;28;20156;-48
2022/03/10 09:03:28;;;;;;;6.72;4.97;;;;;;;;;;5093040;28;20035;-51
2022/03/10 09:05:54;;;;;;;7.55;4.82;;;;;;;;;;5093154;28;20036;-52
2022/03/10 09:08:20;;;;;;;6.82;4.35;;;;;;;;;;5093158;28;20024;-51
2022/03/10 09:10:46;;;;;;;6.40;4.60;;;;;;;;;;5093160;28;20024;-52
2022/03/10 09:13:12;;;;;;;5.55;4.60;;;;;;;;;;5093114;28;20076;-50
2022/03/10 09:15:38;;;;;;;6.00;4.20;;;;;;;;;;5093152;28;20382;-51
2022/03/10 09:18:04;;;;;;;5.97;4.80;;;;;;;;;;5092870;28;20024;-51
2022/03/10 09:20:30;;;;;;;5.57;4.13;;;;;;;;;;5092709;28;20043;-53
2022/03/10 09:22:56;;;;;;;5.30;4.10;;;;;;;;;;5093120;28;20030;-50
2022/03/10 09:25:23;;;;;;;6.22;4.60;;;;;;;;;;5093049;28;20024;-51
2022/03/10 09:27:48;;;;;;;7.00;4.35;;;;;;;;;;5092574;28;20028;-51
2022/03/10 09:30:15;;;;;;;5.35;4.18;;;;;;;;;;5092648;28;20035;-51
2022/03/10 09:32:44;;;;;;;6.15;4.35;;;;;;;;;;5092693;28;20052;-52
2022/03/10 09:35:11;;;;;;;6.28;4.35;;;;;;;;;;5092635;28;20052;-53
2022/03/10 09:37:37;;;;;;;5.97;4.55;;;;;;;;;;5092494;28;20048;-54
2022/03/10 09:40:04;;;;;;;5.53;4.05;;;;;;;;;;5092367;28;20032;-52
2022/03/10 09:42:31;;;;;;;6.15;4.15;;;;;;;;;;5092464;28;20028;-49
2022/03/10 09:44:58;;;;;;;5.43;3.85;;;;;;;;;;5092159;28;20043;-51
2022/03/10 09:47:24;;;;;;;5.25;4.18;;;;;;;;;;5091155;28;20489;-52
2022/03/10 09:49:50;;;;;;;5.07;4.00;;;;;;;;;;5092431;28;20031;-51
2022/03/10 09:52:16;;;;;;;6.28;3.70;;;;;;;;;;5092334;28;20055;-51
2022/03/10 09:54:42;;;;;;;4.22;3.80;;;;;;;;;;5092179;28;20467;-50
2022/03/10 09:57:09;;;;;;;5.20;4.00;;;;;;;;;;5092360;28;20024;-51
2022/03/10 09:59:47;;;;;;;6.03;4.05;;;;;;;;;;5092255;28;20042;-49
2022/03/10 10:02:13;;;;;;;4.03;3.40;;;;;;;;;;5092390;28;20036;-51
2022/03/10 10:04:41;;;;;;;5.55;3.60;;;;;;;;;;5092276;28;20024;-51
2022/03/10 10:07:08;;;;;;;5.10;3.80;;;;;;;;;;5092194;28;20077;-51
2022/03/10 10:10:01;;;;;;;5.13;3.70;;;;;;;;;;5092079;28;20025;-51
2022/03/10 10:12:28;;;;;;;5.25;3.78;;;;;;;;;;5092203;28;20394;-51
2022/03/10 10:14:55;;;;;;;4.53;3.63;;;;;;;;;;5092496;28;20031;-49
2022/03/10 10:17:25;;;;;;;5.88;3.55;;;;;;;;;;5092073;28;20067;-51
2022/03/10 10:19:51;;;;;;;;;;;;;;;;;;5092379;28;20055;-46
2022/03/10 10:22:23;;;;;;;3.70;3.30;;;;;;;;;;5091958;28;19939;-46
2022/03/10 10:25:08;;;;;;;5.47;3.45;;;;;;;;;;5092240;28;20031;-46
2022/03/10 10:27:35;;;;;;;4.28;3.20;;;;;;;;;;5092348;28;20044;-47
2022/03/10 10:30:17;;;;;;;3.83;3.10;;;;;;;;;;5092050;28;20056;-47
2022/03/10 10:32:44;;;;;;;3.75;3.30;;;;;;;;;;5092304;28;20085;-46
2022/03/10 10:35:12;;;;;;;4.28;3.17;;;;;;;;;;5092092;28;20035;-47
2022/03/10 10:37:39;;;;;;;6.07;4.10;;;;;;;;;;5091894;28;20398;-46
2022/03/10 10:40:06;;;;;;;4.10;2.97;;;;;;;;;;5092271;28;20382;-47
2022/03/10 10:42:34;;;;;;;4.97;3.28;;;;;;;;;;5092004;28;20032;-47
2022/03/10 10:45:00;;;;;;;5.15;3.17;;;;;;;;;;5091947;28;20032;-46
2022/03/10 10:47:40;;;;;;;4.22;3.22;;;;;;;;;;5092220;28;20431;-47
2022/03/10 10:50:07;;;;;;;4.28;3.35;;;;;;;;;;5091952;28;20024;-47
2022/03/10 10:52:46;;;;;;;3.38;2.90;;;;;;;;;;5091896;28;20030;-46
2022/03/10 10:55:15;;;;;;;4.70;2.95;;;;;;;;;;5091903;28;20089;-50
2022/03/10 10:57:44;;;;;;;5.10;3.47;;;;;;;;;;5093408;28;20103;-51
2022/03/10 11:00:29;;;;;;;4.43;3.03;;;;;;;;;;5095397;28;20024;-53
2022/03/10 11:02:55;;;;;;;5.00;2.95;;;;;;;;;;5095364;28;20474;-50
2022/03/10 11:05:21;;;;;;;3.28;2.97;;;;;;;;;;5095443;28;20107;-51
2022/03/10 11:07:48;;;;;;;3.70;2.85;;;;;;;;;;5095385;28;20386;-51
2022/03/10 11:10:14;;;;;;;4.65;3.22;;;;;;;;;;5095310;28;20035;-52
2022/03/10 11:12:41;;;;;;;4.18;3.28;;;;;;;;;;5095553;28;20081;-51
2022/03/10 11:15:08;;;;;;;4.45;3.30;;;;;;;;;;5095428;28;20024;-47
2022/03/10 11:17:34;;;;;;;5.43;3.10;;;;;;;;;;5095421;28;20051;-47
2022/03/10 11:20:02;;;;;;;4.78;3.15;;;;;;;;;;5095374;28;20103;-47
2022/03/10 11:22:46;;;;;;;4.00;2.78;;;;;;;;;;5095024;28;20040;-47
2022/03/10 11:25:25;;;;;;;3.58;3.00;;;;;;;;;;5095348;28;20051;-46
2022/03/10 11:27:54;;;;;;;6.53;3.22;;;;;;;;;;5094912;28;20110;-47
2022/03/10 11:30:36;;;;;;;3.40;3.10;;;;;;;;;;5095292;28;20462;-46
2022/03/10 11:33:06;;;;;;;4.05;3.08;;;;;;;;;;5094977;28;20020;-46
2022/03/10 11:35:37;;;;;;;3.38;2.78;;;;;;;;;;5094981;28;20028;-48
2022/03/10 11:38:03;;;;;;;3.65;2.90;;;;;;;;;;5094641;28;20059;-46
2022/03/10 11:40:56;;;;;;;3.47;2.83;;;;;;;;;;5094829;28;20028;-47
2022/03/10 11:43:37;;;;;;;3.67;2.78;;;;;;;;;;5095019;28;20484;-47
2022/03/10 11:46:35;;;;;;;2.90;2.60;;;;;;;;;;5094715;28;20101;-47
2022/03/10 11:49:14;;;;;;;4.20;2.90;;;;;;;;;;5094822;28;20023;-48
2022/03/10 11:51:43;;;;;;;4.97;2.65;;;;;;;;;;5094474;28;20031;-47
2022/03/10 11:54:10;;;;;;;4.53;3.00;;;;;;;;;;5094382;28;20028;-48
2022/03/10 11:56:55;;;;;;;4.22;2.67;;;;;;;;;;5094552;28;20028;-47
2022/03/10 11:59:30;;;;;;;4.00;3.00;;;;;;;;;;5094364;28;20505;-47
2022/03/10 12:01:56;;;;;;;2.60;2.38;;;;;;;;;;5094273;28;20086;-46
2022/03/10 12:04:22;;;;;;;3.25;2.70;;;;;;;;;;5094280;28;20502;-47
2022/03/10 12:06:54;;;;;;;3.72;2.80;;;;;;;;;;5094270;28;20028;-46
2022/03/10 12:09:41;;;;;;;2.95;2.65;;;;;;;;;;5093853;28;20470;-50
2022/03/10 12:12:23;;;;;;;4.10;2.85;;;;;;;;;;5094194;28;20050;-51
2022/03/10 12:14:51;;;;;;;3.20;2.90;;;;;;;;;;5094036;28;20177;-50
2022/03/10 12:17:53;;;;;;;3.17;2.67;;;;;;;;;;5094072;28;20038;-50
2022/03/10 12:20:25;;;;;;;2.95;2.33;;;;;;;;;;5093732;28;20387;-51
2022/03/10 12:23:15;;;;;;;4.70;2.70;;;;;;;;;;5093673;28;20040;-50
2022/03/10 12:25:41;;;;;;;4.45;2.70;;;;;;;;;;5093852;28;20036;-50
2022/03/10 12:28:08;;;;;;;2.95;2.65;;;;;;;;;;5093662;28;20110;-52
2022/03/10 12:30:39;;;;;;;3.63;3.15;;;;;;;;;;5093632;28;20031;-51
2022/03/10 12:33:05;;;;;;;4.18;2.83;;;;;;;;;;5093816;28;20445;-52
2022/03/10 12:35:32;;;;;;;4.47;3.55;;;;;;;;;;5093470;28;20024;-50
2022/03/10 12:37:58;;;;;;;4.57;3.03;;;;;;;;;;5093534;28;20135;-51
2022/03/10 12:40:25;;;;;;;3.08;2.75;;;;;;;;;;5093853;28;20091;-51
2022/03/10 12:42:52;;;;;;;3.17;2.72;;;;;;;;;;5093523;28;20042;-52
2022/03/10 12:45:27;;;;;;;3.35;2.88;;;;;;;;;;5093516;28;20103;-51
2022/03/10 12:47:55;;;;;;;3.90;3.10;;;;;;;;;;5093496;28;20458;-50
2022/03/10 12:50:22;;;;;;;2.95;2.60;;;;;;;;;;5093394;28;20016;-52
2022/03/10 12:52:48;;;;;;;3.72;2.97;;;;;;;;;;5093325;28;20028;-51
2022/03/10 12:55:14;;;;;;;4.03;3.20;;;;;;;;;;5093185;28;20103;-53
2022/03/10 12:57:40;;;;;;;4.53;3.50;;;;;;;;;;5093467;28;20028;-51
2022/03/10 13:00:38;;;;;;;3.50;3.13;;;;;;;;;;5093229;28;20063;-53
2022/03/10 13:03:05;;;;;;;3.58;2.67;;;;;;;;;;5089916;28;20044;-51
2022/03/10 13:05:31;;;;;;;4.05;3.20;;;;;;;;;;5093352;28;20425;-51
2022/03/10 13:08:07;;;;;;;3.60;2.88;;;;;;;;;;5093071;28;20024;-49
2022/03/10 13:10:33;;;;;;;3.40;2.60;;;;;;;;;;5092869;28;20478;-51
2022/03/10 13:12:59;;;;;;;4.45;2.60;;;;;;;;;;5092978;28;20028;-52
2022/03/10 13:15:25;;;;;;;4.63;2.85;;;;;;;;;;5092847;28;20359;-53
2022/03/10 13:17:52;;;;;;;4.85;2.95;;;;;;;;;;5092932;28;20035;-51
2022/03/10 13:20:19;;;;;;;3.20;2.72;;;;;;;;;;5092268;28;20378;-56
2022/03/10 13:22:46;;;;;;;3.85;2.88;;;;;;;;;;5092909;28;20434;-51
2022/03/10 13:25:12;;;;;;;3.65;2.92;;;;;;;;;;5093088;28;20024;-49
2022/03/10 13:27:38;;;;;;;4.55;2.92;;;;;;;;;;5092783;28;20067;-50
2022/03/10 13:30:05;;;;;;;4.03;2.95;;;;;;;;;;5092751;28;20482;-50
2022/03/10 13:32:33;;;;;;;3.30;2.80;;;;;;;;;;5092504;28;20024;-51
2022/03/10 13:35:00;;;;;;;3.05;2.60;;;;;;;;;;5092490;28;20028;-49
2022/03/10 13:37:27;;;;;;;3.42;3.13;;;;;;;;;;5092313;28;20055;-50
2022/03/10 13:39:54;;;;;;;4.05;2.60;;;;;;;;;;5092708;28;20143;-50
2022/03/10 13:42:21;;;;;;;5.82;3.05;;;;;;;;;;5092513;28;20036;-50
2022/03/10 13:44:47;;;;;;;3.25;2.40;;;;;;;;;;5092535;28;20470;-51
2022/03/10 13:47:13;;;;;;;3.70;2.85;;;;;;;;;;5092469;28;20036;-52
2022/03/10 13:49:57;;;;;;;4.55;2.65;;;;;;;;;;5092709;28;20031;-50
2022/03/10 13:52:23;;;;;;;3.95;2.80;;;;;;;;;;5092445;28;20032;-51
2022/03/10 13:54:50;;;;;;;3.47;2.53;;;;;;;;;;5092383;28;20028;-51
2022/03/10 13:57:16;;;;;;;3.03;2.47;;;;;;;;;;5092315;28;20059;-52
2022/03/10 13:59:42;;;;;;;8.35;3.10;;;;;;;;;;5092196;28;20032;-50
2022/03/10 14:02:25;;;;;;;3.47;2.78;;;;;;;;;;5092183;28;20475;-50
2022/03/10 14:04:52;;;;;;;5.63;3.00;;;;;;;;;;5092694;28;20036;-52
2022/03/10 14:07:18;;;;;;;3.70;2.70;;;;;;;;;;5092246;28;20074;-51
2022/03/10 14:09:44;;;;;;;3.58;3.10;;;;;;;;;;5092315;28;20028;-52
2022/03/10 14:12:29;;;;;;;3.88;2.70;;;;;;;;;;5092199;28;20062;-51
2022/03/10 14:14:54;;;;;;;4.28;2.92;;;;;;;;;;5092121;28;20073;-53
2022/03/10 14:17:21;;;;;;;3.85;3.00;;;;;;;;;;5092172;28;20028;-54
2022/03/10 14:19:47;;;;;;;4.10;3.10;;;;;;;;;;5092021;28;20024;-53
2022/03/10 14:22:19;;;;;;;4.95;3.22;;;;;;;;;;5091973;28;20161;-53
2022/03/10 14:24:52;;;;;;;4.78;3.15;;;;;;;;;;5091994;28;20032;-53
2022/03/10 14:27:18;;;;;;;4.45;3.20;;;;;;;;;;5092114;28;20024;-51
2022/03/10 14:29:56;;;;;;;5.97;2.90;;;;;;;;;;5091960;28;20033;-50
2022/03/10 14:32:23;;;;;;;6.43;3.08;;;;;;;;;;5094682;28;20024;-50
2022/03/10 14:34:49;;;;;;;4.18;3.22;;;;;;;;;;5095912;28;20029;-52
2022/03/10 14:37:15;;;;;;;3.33;2.65;;;;;;;;;;5095702;28;20048;-53
2022/03/10 14:39:41;;;;;;;3.88;2.92;;;;;;;;;;5095627;28;20016;-51
2022/03/10 14:42:07;;;;;;;3.33;3.03;;;;;;;;;;5095765;28;20486;-51
2022/03/10 14:44:33;;;;;;;4.75;3.22;;;;;;;;;;5095548;28;20058;-53
2022/03/10 14:46:59;;;;;;;5.65;3.45;;;;;;;;;;5095584;28;20153;-50
2022/03/10 14:49:25;;;;;;;5.40;3.10;;;;;;;;;;5095652;28;20060;-50
2022/03/10 14:51:52;;;;;;;4.30;2.90;;;;;;;;;;5095309;28;20020;-52